sensor_id;sensor_type;location;lat;lon;timestamp;pressure;altitude;pressure_sealevel;temperature;humidity
10881;BME280;5493;48.884;8.338;2023-07-24T00:02:20;99421.72;;;20.64;100.00
10881;BME280;5493;48.884;8.338;2023-07-24T00:04:46;99419.63;;;20.97;100.00
10881;BME280;5493;48.884;8.338;2023-07-24T00:07:13;99415.16;;;20.87;100.00
10881;BME280;5493;48.884;8.338;2023-07-24T00:09:40;99413.91;;;20.57;100.00
10881;BME280;5493;48.884;8.338;2023-07-24T00:12:07;99420.59;;;20.65;100.00
10881;BME280;5493;48.884;8.338;2023-07-24T00:14:34;99425.13;;;20.70;100.00
10881;BME280;5493;48.884;8.338;2023-07-24T00:17:01;99414.00;;;20.52;100.00
10881;BME280;5493;48.884;8.338;2023-07-24T00:19:28;99417.59;;;20.39;100.00
10881;BME280;5493;48.884;8.338;2023-07-24T00:21:54;99415.91;;;20.66;100.00
10881;BME280;5493;48.884;8.338;2023-07-24T00:24:21;99414.34;;;20.51;100.00
10881;BME280;5493;48.884;8.338;2023-07-24T00:26:47;99409.09;;;20.77;100.00
10881;BME280;5493;48.884;8.338;2023-07-24T00:29:14;99412.69;;;20.63;100.00
10881;BME280;5493;48.884;8.338;2023-07-24T00:31:40;99414.22;;;20.56;100.00
10881;BME280;5493;48.884;8.338;2023-07-24T00:34:08;99420.81;;;20.41;100.00
10881;BME280;5493;48.884;8.338;2023-07-24T00:36:35;99411.38;;;20.61;100.00
10881;BME280;5493;48.884;8.338;2023-07-24T00:39:01;99407.09;;;20.55;100.00
10881;BME280;5493;48.884;8.338;2023-07-24T00:41:28;99396.75;;;20.52;100.00
10881;BME280;5493;48.884;8.338;2023-07-24T00:43:54;99394.38;;;20.86;100.00
10881;BME280;5493;48.884;8.338;2023-07-24T00:46:21;99385.75;;;20.79;100.00
10881;BME280;5493;48.884;8.338;2023-07-24T00:48:48;99394.13;;;20.60;100.00
10881;BME280;5493;48.884;8.338;2023-07-24T00:51:16;99383.91;;;20.39;100.00
10881;BME280;5493;48.884;8.338;2023-07-24T00:53:43;99391.28;;;20.52;100.00
10881;BME280;5493;48.884;8.338;2023-07-24T00:56:10;99392.69;;;20.22;100.00
10881;BME280;5493;48.884;8.338;2023-07-24T00:58:37;99391.19;;;20.16;100.00
10881;BME280;5493;48.884;8.338;2023-07-24T01:01:04;99391.38;;;20.20;100.00
10881;BME280;5493;48.884;8.338;2023-07-24T01:03:33;99385.41;;;20.04;100.00
10881;BME280;5493;48.884;8.338;2023-07-24T01:06:01;99372.84;;;20.30;100.00
10881;BME280;5493;48.884;8.338;2023-07-24T01:08:29;99374.75;;;20.16;100.00
10881;BME280;5493;48.884;8.338;2023-07-24T01:10:57;99370.72;;;20.54;100.00
10881;BME280;5493;48.884;8.338;2023-07-24T01:13:29;99375.75;;;20.61;100.00
10881;BME280;5493;48.884;8.338;2023-07-24T01:16:02;99370.00;;;20.49;100.00
10881;BME280;5493;48.884;8.338;2023-07-24T01:18:30;99374.56;;;20.53;100.00
10881;BME280;5493;48.884;8.338;2023-07-24T01:20:57;99366.75;;;20.47;100.00
10881;BME280;5493;48.884;8.338;2023-07-24T01:23:41;99369.75;;;20.59;100.00
10881;BME280;5493;48.884;8.338;2023-07-24T01:26:12;99370.44;;;20.29;100.00
10881;BME280;5493;48.884;8.338;2023-07-24T01:28:39;99376.97;;;20.55;100.00
10881;BME280;5493;48.884;8.338;2023-07-24T01:31:05;99368.38;;;20.48;100.00
10881;BME280;5493;48.884;8.338;2023-07-24T01:33:32;99373.78;;;20.39;100.00
10881;BME280;5493;48.884;8.338;2023-07-24T01:36:02;99384.13;;;20.29;100.00
10881;BME280;5493;48.884;8.338;2023-07-24T01:38:31;99377.28;;;20.12;100.00
10881;BME280;5493;48.884;8.338;2023-07-24T01:40:58;99376.88;;;20.05;100.00
10881;BME280;5493;48.884;8.338;2023-07-24T01:43:27;99376.47;;;20.12;100.00
10881;BME280;5493;48.884;8.338;2023-07-24T01:45:54;99372.34;;;20.14;100.00
10881;BME280;5493;48.884;8.338;2023-07-24T01:48:21;99372.41;;;20.23;100.00
10881;BME280;5493;48.884;8.338;2023-07-24T01:50:48;99376.81;;;20.10;100.00
10881;BME280;5493;48.884;8.338;2023-07-24T01:53:15;99382.38;;;19.92;100.00
10881;BME280;5493;48.884;8.338;2023-07-24T01:55:41;99383.59;;;19.53;100.00
10881;BME280;5493;48.884;8.338;2023-07-24T01:58:08;99380.97;;;19.48;100.00
10881;BME280;5493;48.884;8.338;2023-07-24T02:00:36;99384.09;;;19.42;100.00
10881;BME280;5493;48.884;8.338;2023-07-24T02:03:02;99383.50;;;19.45;100.00
10881;BME280;5493;48.884;8.338;2023-07-24T02:05:29;99387.25;;;19.30;100.00
10881;BME280;5493;48.884;8.338;2023-07-24T02:07:55;99375.78;;;19.47;100.00
10881;BME280;5493;48.884;8.338;2023-07-24T02:10:22;99375.09;;;19.41;100.00
10881;BME280;5493;48.884;8.338;2023-07-24T02:12:48;99364.16;;;19.41;100.00
10881;BME280;5493;48.884;8.338;2023-07-24T02:15:15;99360.63;;;19.54;100.00
10881;BME280;5493;48.884;8.338;2023-07-24T02:17:43;99357.00;;;19.73;100.00
10881;BME280;5493;48.884;8.338;2023-07-24T02:20:10;99352.34;;;19.87;100.00
10881;BME280;5493;48.884;8.338;2023-07-24T02:22:36;99349.72;;;19.82;100.00
10881;BME280;5493;48.884;8.338;2023-07-24T02:25:03;99345.97;;;20.05;100.00
10881;BME280;5493;48.884;8.338;2023-07-24T02:27:31;99355.59;;;20.02;100.00
10881;BME280;5493;48.884;8.338;2023-07-24T02:30:00;99351.25;;;20.01;100.00
10881;BME280;5493;48.884;8.338;2023-07-24T02:32:26;99339.91;;;19.81;100.00
10881;BME280;5493;48.884;8.338;2023-07-24T02:34:55;99343.66;;;19.98;100.00
10881;BME280;5493;48.884;8.338;2023-07-24T02:37:21;99342.63;;;19.94;100.00
10881;BME280;5493;48.884;8.338;2023-07-24T02:39:48;99340.69;;;20.08;100.00
10881;BME280;5493;48.884;8.338;2023-07-24T02:42:14;99336.66;;;20.06;100.00
10881;BME280;5493;48.884;8.338;2023-07-24T02:44:41;99328.94;;;20.22;100.00
10881;BME280;5493;48.884;8.338;2023-07-24T02:47:07;99323.56;;;20.30;100.00
10881;BME280;5493;48.884;8.338;2023-07-24T02:49:34;99326.59;;;20.42;100.00
10881;BME280;5493;48.884;8.338;2023-07-24T02:52:02;99319.25;;;20.29;100.00
10881;BME280;5493;48.884;8.338;2023-07-24T02:54:28;99308.47;;;20.05;100.00
10881;BME280;5493;48.884;8.338;2023-07-24T02:56:55;99302.69;;;19.93;100.00
10881;BME280;5493;48.884;8.338;2023-07-24T02:59:23;99298.03;;;19.94;100.00
10881;BME280;5493;48.884;8.338;2023-07-24T03:01:49;99299.88;;;19.98;100.00
10881;BME280;5493;48.884;8.338;2023-07-24T03:04:16;99299.75;;;20.17;100.00
10881;BME280;5493;48.884;8.338;2023-07-24T03:06:43;99294.38;;;20.26;100.00
10881;BME280;5493;48.884;8.338;2023-07-24T03:09:11;99290.31;;;20.23;100.00
10881;BME280;5493;48.884;8.338;2023-07-24T03:11:37;99285.44;;;20.20;100.00
10881;BME280;5493;48.884;8.338;2023-07-24T03:14:04;99274.63;;;20.01;100.00
10881;BME280;5493;48.884;8.338;2023-07-24T03:16:30;99273.13;;;20.45;100.00
10881;BME280;5493;48.884;8.338;2023-07-24T03:18:57;99277.84;;;20.17;100.00
10881;BME280;5493;48.884;8.338;2023-07-24T03:21:23;99298.91;;;20.44;100.00
10881;BME280;5493;48.884;8.338;2023-07-24T03:23:50;99311.03;;;20.51;100.00
10881;BME280;5493;48.884;8.338;2023-07-24T03:26:18;99308.13;;;20.48;100.00
10881;BME280;5493;48.884;8.338;2023-07-24T03:28:44;99301.19;;;20.28;100.00
10881;BME280;5493;48.884;8.338;2023-07-24T03:31:11;99307.75;;;20.13;100.00
10881;BME280;5493;48.884;8.338;2023-07-24T03:33:37;99314.59;;;20.52;100.00
10881;BME280;5493;48.884;8.338;2023-07-24T03:36:04;99305.41;;;20.21;100.00
10881;BME280;5493;48.884;8.338;2023-07-24T03:38:31;99313.50;;;20.53;100.00
10881;BME280;5493;48.884;8.338;2023-07-24T03:40:57;99294.91;;;20.63;100.00
10881;BME280;5493;48.884;8.338;2023-07-24T03:43:25;99293.16;;;20.68;100.00
10881;BME280;5493;48.884;8.338;2023-07-24T03:45:51;99292.09;;;20.77;100.00
10881;BME280;5493;48.884;8.338;2023-07-24T03:48:18;99300.44;;;20.72;100.00
10881;BME280;5493;48.884;8.338;2023-07-24T03:50:44;99304.19;;;20.76;100.00
10881;BME280;5493;48.884;8.338;2023-07-24T03:53:11;99289.50;;;20.72;100.00
10881;BME280;5493;48.884;8.338;2023-07-24T03:55:37;99282.75;;;20.78;100.00
10881;BME280;5493;48.884;8.338;2023-07-24T03:58:04;99275.41;;;20.65;100.00
10881;BME280;5493;48.884;8.338;2023-07-24T04:00:32;99289.97;;;20.74;100.00
10881;BME280;5493;48.884;8.338;2023-07-24T04:02:58;99296.53;;;20.87;100.00
10881;BME280;5493;48.884;8.338;2023-07-24T04:05:25;99291.06;;;20.87;100.00
10881;BME280;5493;48.884;8.338;2023-07-24T04:07:52;99276.16;;;20.57;100.00
10881;BME280;5493;48.884;8.338;2023-07-24T04:10:18;99283.06;;;20.77;100.00
10881;BME280;5493;48.884;8.338;2023-07-24T04:12:45;99277.97;;;20.61;100.00
10881;BME280;5493;48.884;8.338;2023-07-24T04:15:12;99276.81;;;20.27;100.00
10881;BME280;5493;48.884;8.338;2023-07-24T04:17:39;99283.19;;;20.22;100.00
10881;BME280;5493;48.884;8.338;2023-07-24T04:20:08;99283.94;;;20.28;100.00
10881;BME280;5493;48.884;8.338;2023-07-24T04:22:34;99281.69;;;20.16;100.00
10881;BME280;5493;48.884;8.338;2023-07-24T04:25:01;99276.94;;;20.35;100.00
10881;BME280;5493;48.884;8.338;2023-07-24T04:27:27;99273.94;;;20.45;100.00
10881;BME280;5493;48.884;8.338;2023-07-24T04:29:54;99266.63;;;20.77;100.00
10881;BME280;5493;48.884;8.338;2023-07-24T04:32:21;99257.00;;;20.79;100.00
10881;BME280;5493;48.884;8.338;2023-07-24T04:34:49;99259.97;;;20.91;100.00
10881;BME280;5493;48.884;8.338;2023-07-24T04:37:15;99259.84;;;20.96;100.00
10881;BME280;5493;48.884;8.338;2023-07-24T04:39:42;99267.16;;;21.09;100.00
10881;BME280;5493;48.884;8.338;2023-07-24T04:42:08;99259.84;;;20.96;100.00
10881;BME280;5493;48.884;8.338;2023-07-24T04:44:35;99262.41;;;20.93;100.00
10881;BME280;5493;48.884;8.338;2023-07-24T04:47:01;99249.38;;;20.98;100.00
10881;BME280;5493;48.884;8.338;2023-07-24T04:49:29;99243.03;;;21.12;100.00
10881;BME280;5493;48.884;8.338;2023-07-24T04:51:57;99241.47;;;21.19;100.00
10881;BME280;5493;48.884;8.338;2023-07-24T04:54:24;99234.44;;;21.04;100.00
10881;BME280;5493;48.884;8.338;2023-07-24T04:56:50;99245.69;;;21.03;100.00
10881;BME280;5493;48.884;8.338;2023-07-24T04:59:17;99248.31;;;21.08;100.00
10881;BME280;5493;48.884;8.338;2023-07-24T05:01:43;99248.13;;;21.27;100.00
10881;BME280;5493;48.884;8.338;2023-07-24T05:04:10;99264.81;;;21.17;100.00
10881;BME280;5493;48.884;8.338;2023-07-24T05:06:36;99268.78;;;21.33;100.00
10881;BME280;5493;48.884;8.338;2023-07-24T05:09:05;99280.78;;;21.15;100.00
10881;BME280;5493;48.884;8.338;2023-07-24T05:11:31;99282.97;;;21.26;100.00
10881;BME280;5493;48.884;8.338;2023-07-24T05:13:58;99284.88;;;21.03;100.00
10881;BME280;5493;48.884;8.338;2023-07-24T05:16:24;99267.97;;;21.10;100.00
10881;BME280;5493;48.884;8.338;2023-07-24T05:18:51;99273.09;;;21.03;100.00
10881;BME280;5493;48.884;8.338;2023-07-24T05:21:17;99266.69;;;20.85;100.00
10881;BME280;5493;48.884;8.338;2023-07-24T05:23:44;99264.44;;;20.87;100.00
10881;BME280;5493;48.884;8.338;2023-07-24T05:26:12;99279.78;;;20.88;100.00
10881;BME280;5493;48.884;8.338;2023-07-24T05:28:38;99287.13;;;21.24;100.00
10881;BME280;5493;48.884;8.338;2023-07-24T05:31:05;99296.09;;;21.38;100.00
10881;BME280;5493;48.884;8.338;2023-07-24T05:33:33;99303.16;;;21.30;100.00
10881;BME280;5493;48.884;8.338;2023-07-24T05:36:00;99312.31;;;21.26;100.00
10881;BME280;5493;48.884;8.338;2023-07-24T05:38:27;99315.69;;;21.23;100.00
10881;BME280;5493;48.884;8.338;2023-07-24T05:40:57;99310.81;;;21.50;100.00
10881;BME280;5493;48.884;8.338;2023-07-24T05:43:25;99314.44;;;21.59;100.00
10881;BME280;5493;48.884;8.338;2023-07-24T05:45:52;99315.66;;;21.53;100.00
10881;BME280;5493;48.884;8.338;2023-07-24T05:48:19;99300.97;;;21.49;100.00
10881;BME280;5493;48.884;8.338;2023-07-24T05:50:46;99295.34;;;21.24;100.00
10881;BME280;5493;48.884;8.338;2023-07-24T05:53:12;99294.31;;;21.42;100.00
10881;BME280;5493;48.884;8.338;2023-07-24T05:55:39;99290.22;;;21.31;100.00
10881;BME280;5493;48.884;8.338;2023-07-24T05:58:06;99295.63;;;21.44;100.00
10881;BME280;5493;48.884;8.338;2023-07-24T06:00:33;99290.78;;;21.81;100.00
10881;BME280;5493;48.884;8.338;2023-07-24T06:03:01;99285.13;;;21.86;100.00
10881;BME280;5493;48.884;8.338;2023-07-24T06:05:28;99285.47;;;21.84;100.00
10881;BME280;5493;48.884;8.338;2023-07-24T06:07:54;99276.97;;;22.03;100.00
10881;BME280;5493;48.884;8.338;2023-07-24T06:10:21;99282.34;;;22.17;100.00
10881;BME280;5493;48.884;8.338;2023-07-24T06:12:47;99281.53;;;22.25;100.00
10881;BME280;5493;48.884;8.338;2023-07-24T06:15:14;99283.31;;;22.12;100.00
10881;BME280;5493;48.884;8.338;2023-07-24T06:17:42;99282.38;;;22.34;100.00
10881;BME280;5493;48.884;8.338;2023-07-24T06:20:09;99280.91;;;22.36;100.00
10881;BME280;5493;48.884;8.338;2023-07-24T06:22:35;99289.66;;;22.38;100.00
10881;BME280;5493;48.884;8.338;2023-07-24T06:25:02;99282.19;;;22.22;100.00
10881;BME280;5493;48.884;8.338;2023-07-24T06:27:28;99287.78;;;21.99;100.00
10881;BME280;5493;48.884;8.338;2023-07-24T06:29:55;99293.84;;;22.36;100.00
10881;BME280;5493;48.884;8.338;2023-07-24T06:32:21;99290.47;;;22.47;100.00
10881;BME280;5493;48.884;8.338;2023-07-24T06:34:49;99298.72;;;22.39;100.00
10881;BME280;5493;48.884;8.338;2023-07-24T06:37:16;99290.63;;;22.34;100.00
10881;BME280;5493;48.884;8.338;2023-07-24T06:39:42;99282.19;;;22.22;100.00
10881;BME280;5493;48.884;8.338;2023-07-24T06:42:10;99286.09;;;22.21;100.00
10881;BME280;5493;48.884;8.338;2023-07-24T06:44:36;99281.41;;;22.47;100.00
10881;BME280;5493;48.884;8.338;2023-07-24T06:47:03;99276.72;;;22.65;100.00
10881;BME280;5493;48.884;8.338;2023-07-24T06:49:29;99286.94;;;22.73;100.00
10881;BME280;5493;48.884;8.338;2023-07-24T06:51:57;99273.38;;;22.68;100.00
10881;BME280;5493;48.884;8.338;2023-07-24T06:54:24;99272.06;;;22.56;100.00
10881;BME280;5493;48.884;8.338;2023-07-24T06:56:50;99269.28;;;22.31;100.00
10881;BME280;5493;48.884;8.338;2023-07-24T06:59:17;99269.94;;;22.62;100.00
10881;BME280;5493;48.884;8.338;2023-07-24T07:01:43;99276.09;;;23.02;100.00
10881;BME280;5493;48.884;8.338;2023-07-24T07:04:10;99279.03;;;22.97;100.00
10881;BME280;5493;48.884;8.338;2023-07-24T07:06:36;99309.88;;;23.11;100.00
10881;BME280;5493;48.884;8.338;2023-07-24T07:09:04;99331.88;;;22.68;100.00
10881;BME280;5493;48.884;8.338;2023-07-24T07:11:31;99325.03;;;22.31;100.00
10881;BME280;5493;48.884;8.338;2023-07-24T07:13:58;99316.94;;;22.26;100.00
10881;BME280;5493;48.884;8.338;2023-07-24T07:16:24;99312.09;;;22.23;100.00
10881;BME280;5493;48.884;8.338;2023-07-24T07:18:51;99326.50;;;22.46;100.00
10881;BME280;5493;48.884;8.338;2023-07-24T07:21:17;99324.75;;;22.50;100.00
10881;BME280;5493;48.884;8.338;2023-07-24T07:23:44;99322.47;;;22.52;100.00
10881;BME280;5493;48.884;8.338;2023-07-24T07:26:12;99317.78;;;22.61;100.00
10881;BME280;5493;48.884;8.338;2023-07-24T07:28:38;99318.31;;;22.72;100.00
10881;BME280;5493;48.884;8.338;2023-07-24T07:31:05;99322.84;;;22.68;100.00
10881;BME280;5493;48.884;8.338;2023-07-24T07:33:31;99322.28;;;22.40;100.00
10881;BME280;5493;48.884;8.338;2023-07-24T07:35:58;99330.72;;;22.61;100.00
10881;BME280;5493;48.884;8.338;2023-07-24T07:38:24;99333.00;;;22.50;100.00
10881;BME280;5493;48.884;8.338;2023-07-24T07:40:51;99340.88;;;22.51;100.00
10881;BME280;5493;48.884;8.338;2023-07-24T07:43:19;99348.47;;;22.37;100.00
10881;BME280;5493;48.884;8.338;2023-07-24T07:45:46;99355.88;;;22.37;100.00
10881;BME280;5493;48.884;8.338;2023-07-24T07:48:13;99348.50;;;22.46;100.00
10881;BME280;5493;48.884;8.338;2023-07-24T07:50:39;99347.66;;;22.37;100.00
10881;BME280;5493;48.884;8.338;2023-07-24T07:53:06;99342.53;;;22.52;100.00
10881;BME280;5493;48.884;8.338;2023-07-24T07:55:32;99333.31;;;22.66;100.00
10881;BME280;5493;48.884;8.338;2023-07-24T07:57:59;99337.19;;;22.65;100.00
10881;BME280;5493;48.884;8.338;2023-07-24T08:00:27;99333.31;;;22.57;100.00
10881;BME280;5493;48.884;8.338;2023-07-24T08:02:53;99326.72;;;22.84;100.00
10881;BME280;5493;48.884;8.338;2023-07-24T08:05:20;99316.03;;;22.99;100.00
10881;BME280;5493;48.884;8.338;2023-07-24T08:07:46;99314.56;;;23.11;100.00
10881;BME280;5493;48.884;8.338;2023-07-24T08:10:13;99302.09;;;23.04;100.00
10881;BME280;5493;48.884;8.338;2023-07-24T08:12:40;99295.13;;;23.24;100.00
10881;BME280;5493;48.884;8.338;2023-07-24T08:15:08;99282.66;;;23.44;100.00
10881;BME280;5493;48.884;8.338;2023-07-24T08:17:36;99281.66;;;23.48;100.00
10881;BME280;5493;48.884;8.338;2023-07-24T08:20:03;99268.44;;;23.71;100.00
10881;BME280;5493;48.884;8.338;2023-07-24T08:22:30;99258.56;;;23.70;100.00
10881;BME280;5493;48.884;8.338;2023-07-24T08:24:56;99249.66;;;23.73;100.00
10881;BME280;5493;48.884;8.338;2023-07-24T08:27:23;99255.66;;;24.05;100.00
10881;BME280;5493;48.884;8.338;2023-07-24T08:29:50;99240.16;;;24.21;100.00
10881;BME280;5493;48.884;8.338;2023-07-24T08:32:17;99254.69;;;24.50;100.00
10881;BME280;5493;48.884;8.338;2023-07-24T08:34:45;99263.03;;;24.63;100.00
10881;BME280;5493;48.884;8.338;2023-07-24T08:37:12;99274.78;;;24.72;100.00
10881;BME280;5493;48.884;8.338;2023-07-24T08:39:38;99269.25;;;24.92;100.00
10881;BME280;5493;48.884;8.338;2023-07-24T08:42:08;99276.66;;;25.01;100.00
10881;BME280;5493;48.884;8.338;2023-07-24T08:44:36;99266.81;;;25.12;100.00
10881;BME280;5493;48.884;8.338;2023-07-24T08:47:04;99257.28;;;25.66;100.00
10881;BME280;5493;48.884;8.338;2023-07-24T08:49:31;99254.75;;;25.73;100.00
10881;BME280;5493;48.884;8.338;2023-07-24T08:52:00;99250.50;;;26.52;100.00
10881;BME280;5493;48.884;8.338;2023-07-24T08:54:27;99246.06;;;27.03;100.00
10881;BME280;5493;48.884;8.338;2023-07-24T08:56:55;99255.72;;;27.53;100.00
10881;BME280;5493;48.884;8.338;2023-07-24T08:59:22;99247.66;;;27.48;100.00
10881;BME280;5493;48.884;8.338;2023-07-24T09:01:48;99252.16;;;28.18;100.00
10881;BME280;5493;48.884;8.338;2023-07-24T09:04:15;99253.28;;;27.82;100.00
10881;BME280;5493;48.884;8.338;2023-07-24T09:06:41;99257.63;;;28.15;100.00
10881;BME280;5493;48.884;8.338;2023-07-24T09:09:16;99246.44;;;28.27;100.00
10881;BME280;5493;48.884;8.338;2023-07-24T09:11:46;99259.38;;;27.88;100.00
10881;BME280;5493;48.884;8.338;2023-07-24T09:14:20;99270.63;;;27.79;100.00
10881;BME280;5493;48.884;8.338;2023-07-24T09:16:46;99276.16;;;27.20;100.00
10881;BME280;5493;48.884;8.338;2023-07-24T09:19:16;99283.72;;;26.80;100.00
10881;BME280;5493;48.884;8.338;2023-07-24T09:21:43;99278.53;;;26.51;100.00
10881;BME280;5493;48.884;8.338;2023-07-24T09:24:11;99272.69;;;26.28;100.00
10881;BME280;5493;48.884;8.338;2023-07-24T09:26:48;99271.88;;;26.27;100.00
10881;BME280;5493;48.884;8.338;2023-07-24T09:29:14;99272.00;;;25.82;100.00
10881;BME280;5493;48.884;8.338;2023-07-24T09:31:41;99280.63;;;25.57;100.00
10881;BME280;5493;48.884;8.338;2023-07-24T09:34:14;99278.34;;;25.26;100.00
10881;BME280;5493;48.884;8.338;2023-07-24T09:36:40;99278.47;;;24.96;100.00
10881;BME280;5493;48.884;8.338;2023-07-24T09:39:07;99278.97;;;24.78;100.00
10881;BME280;5493;48.884;8.338;2023-07-24T09:41:36;99286.03;;;24.87;100.00
10881;BME280;5493;48.884;8.338;2023-07-24T09:44:04;99278.88;;;24.66;100.00
10881;BME280;5493;48.884;8.338;2023-07-24T09:46:30;99288.56;;;24.51;100.00
10881;BME280;5493;48.884;8.338;2023-07-24T09:48:57;99297.09;;;24.58;100.00
10881;BME280;5493;48.884;8.338;2023-07-24T09:51:24;99296.19;;;24.25;100.00
10881;BME280;5493;48.884;8.338;2023-07-24T09:53:53;99295.94;;;24.18;100.00
10881;BME280;5493;48.884;8.338;2023-07-24T09:56:22;99292.03;;;24.10;100.00
10881;BME280;5493;48.884;8.338;2023-07-24T09:58:50;99295.59;;;24.19;100.00
10881;BME280;5493;48.884;8.338;2023-07-24T10:01:21;99292.44;;;24.00;100.00
10881;BME280;5493;48.884;8.338;2023-07-24T10:03:49;99297.41;;;23.77;100.00
10881;BME280;5493;48.884;8.338;2023-07-24T10:06:17;99298.69;;;23.80;100.00
10881;BME280;5493;48.884;8.338;2023-07-24T10:08:44;99299.84;;;23.70;100.00
10881;BME280;5493;48.884;8.338;2023-07-24T10:11:11;99303.94;;;23.64;100.00
10881;BME280;5493;48.884;8.338;2023-07-24T10:13:38;99311.94;;;23.31;100.00
10881;BME280;5493;48.884;8.338;2023-07-24T10:16:06;99304.34;;;23.20;100.00
10881;BME280;5493;48.884;8.338;2023-07-24T10:18:35;99299.00;;;23.23;100.00
10881;BME280;5493;48.884;8.338;2023-07-24T10:21:08;99298.38;;;23.18;100.00
10881;BME280;5493;48.884;8.338;2023-07-24T10:23:36;99308.41;;;23.14;100.00
10881;BME280;5493;48.884;8.338;2023-07-24T10:26:03;99292.41;;;22.98;100.00
10881;BME280;5493;48.884;8.338;2023-07-24T10:28:31;99295.00;;;23.03;100.00
10881;BME280;5493;48.884;8.338;2023-07-24T10:30:58;99285.81;;;22.74;100.00
10881;BME280;5493;48.884;8.338;2023-07-24T10:33:25;99290.50;;;22.73;100.00
10881;BME280;5493;48.884;8.338;2023-07-24T10:36:04;99286.13;;;22.72;100.00
10881;BME280;5493;48.884;8.338;2023-07-24T10:38:34;99284.16;;;22.47;100.00
10881;BME280;5493;48.884;8.338;2023-07-24T10:41:02;99266.06;;;22.46;100.00
10881;BME280;5493;48.884;8.338;2023-07-24T10:43:29;99257.34;;;22.44;100.00
10881;BME280;5493;48.884;8.338;2023-07-24T10:45:55;99269.47;;;22.51;100.00
10881;BME280;5493;48.884;8.338;2023-07-24T10:48:25;99238.44;;;22.51;100.00
10881;BME280;5493;48.884;8.338;2023-07-24T10:50:52;99250.38;;;22.46;100.00
10881;BME280;5493;48.884;8.338;2023-07-24T10:53:21;99240.38;;;22.59;100.00
10881;BME280;5493;48.884;8.338;2023-07-24T10:55:49;99240.19;;;22.30;100.00
10881;BME280;5493;48.884;8.338;2023-07-24T10:58:16;99226.16;;;22.31;100.00
10881;BME280;5493;48.884;8.338;2023-07-24T11:00:44;99198.03;;;22.26;100.00
10881;BME280;5493;48.884;8.338;2023-07-24T11:03:12;99178.66;;;22.22;100.00
10881;BME280;5493;48.884;8.338;2023-07-24T11:05:39;99177.34;;;22.37;100.00
10881;BME280;5493;48.884;8.338;2023-07-24T11:08:11;99178.81;;;22.34;100.00
10881;BME280;5493;48.884;8.338;2023-07-24T11:10:44;99161.03;;;22.40;100.00
10881;BME280;5493;48.884;8.338;2023-07-24T11:13:10;99190.59;;;22.43;100.00
10881;BME280;5493;48.884;8.338;2023-07-24T11:15:37;99192.38;;;22.48;100.00
10881;BME280;5493;48.884;8.338;2023-07-24T11:18:04;99191.38;;;22.61;100.00
10881;BME280;5493;48.884;8.338;2023-07-24T11:20:35;99193.94;;;22.92;100.00
10881;BME280;5493;48.884;8.338;2023-07-24T11:23:03;99195.16;;;23.12;100.00
10881;BME280;5493;48.884;8.338;2023-07-24T11:25:29;99193.69;;;23.23;100.00
10881;BME280;5493;48.884;8.338;2023-07-24T11:27:57;99183.69;;;23.56;100.00
10881;BME280;5493;48.884;8.338;2023-07-24T11:30:24;99197.72;;;23.63;100.00
10881;BME280;5493;48.884;8.338;2023-07-24T11:32:51;99195.91;;;23.96;100.00
10881;BME280;5493;48.884;8.338;2023-07-24T11:35:19;99197.56;;;23.68;100.00
10881;BME280;5493;48.884;8.338;2023-07-24T11:37:46;99197.59;;;23.60;100.00
10881;BME280;5493;48.884;8.338;2023-07-24T11:40:13;99210.81;;;23.66;100.00
10881;BME280;5493;48.884;8.338;2023-07-24T11:42:43;99204.16;;;23.76;100.00
10881;BME280;5493;48.884;8.338;2023-07-24T11:45:11;99206.34;;;23.62;100.00
10881;BME280;5493;48.884;8.338;2023-07-24T11:47:43;99234.22;;;23.51;100.00
10881;BME280;5493;48.884;8.338;2023-07-24T11:50:09;99234.22;;;23.51;100.00
10881;BME280;5493;48.884;8.338;2023-07-24T11:52:40;99219.06;;;23.28;100.00
10881;BME280;5493;48.884;8.338;2023-07-24T11:55:09;99225.94;;;23.51;100.00
10881;BME280;5493;48.884;8.338;2023-07-24T11:57:35;99226.72;;;23.61;100.00
10881;BME280;5493;48.884;8.338;2023-07-24T12:00:03;99220.25;;;23.65;100.00
10881;BME280;5493;48.884;8.338;2023-07-24T12:02:32;99216.44;;;23.78;100.00
10881;BME280;5493;48.884;8.338;2023-07-24T12:04:59;99227.75;;;24.15;100.00
10881;BME280;5493;48.884;8.338;2023-07-24T12:07:31;99218.72;;;23.76;100.00
10881;BME280;5493;48.884;8.338;2023-07-24T12:09:59;99221.84;;;23.66;100.00
10881;BME280;5493;48.884;8.338;2023-07-24T12:12:37;99228.59;;;23.77;100.00
10881;BME280;5493;48.884;8.338;2023-07-24T12:15:04;99227.78;;;23.77;100.00
10881;BME280;5493;48.884;8.338;2023-07-24T12:17:33;99228.25;;;23.49;100.00
10881;BME280;5493;48.884;8.338;2023-07-24T12:19:59;99217.22;;;23.58;100.00
10881;BME280;5493;48.884;8.338;2023-07-24T12:22:26;99200.28;;;23.30;100.00
10881;BME280;5493;48.884;8.338;2023-07-24T12:24:52;99220.41;;;23.89;100.00
10881;BME280;5493;48.884;8.338;2023-07-24T12:27:19;99197.09;;;24.37;100.00
10881;BME280;5493;48.884;8.338;2023-07-24T12:29:45;99193.50;;;24.57;100.00
10881;BME280;5493;48.884;8.338;2023-07-24T12:32:12;99182.88;;;25.01;100.00
10881;BME280;5493;48.884;8.338;2023-07-24T12:34:39;99190.31;;;24.88;100.00
10881;BME280;5493;48.884;8.338;2023-07-24T12:37:06;99184.94;;;24.71;100.00
10881;BME280;5493;48.884;8.338;2023-07-24T12:39:33;99182.28;;;24.95;100.00
10881;BME280;5493;48.884;8.338;2023-07-24T12:41:59;99172.22;;;24.78;100.00
10881;BME280;5493;48.884;8.338;2023-07-24T12:44:26;99186.69;;;25.32;100.00
10881;BME280;5493;48.884;8.338;2023-07-24T12:46:52;99173.47;;;25.26;100.00
10881;BME280;5493;48.884;8.338;2023-07-24T12:49:19;99179.25;;;25.21;100.00
10881;BME280;5493;48.884;8.338;2023-07-24T12:51:47;99166.78;;;25.15;100.00
10881;BME280;5493;48.884;8.338;2023-07-24T12:54:13;99175.19;;;25.18;100.00
10881;BME280;5493;48.884;8.338;2023-07-24T12:56:40;99158.91;;;25.50;100.00
10881;BME280;5493;48.884;8.338;2023-07-24T12:59:07;99143.91;;;25.51;100.00
10881;BME280;5493;48.884;8.338;2023-07-24T13:01:33;99145.13;;;26.02;100.00